Time;durP1;ratioP1;P1;durP2;ratioP2;P2;SDS_P1;SDS_P2;PMS_P1;PMS_P2;Temp;Humidity;BMP_temperature;BMP_pressure;BME280_temperature;BME280_humidity;BME280_pressure;Samples;Min_cycle;Max_cycle;Signal;HPM_P1;HPM_P2
2022/11/25 00:01:21;;;;;;;18.98;6.95;;;;;;;5.24;100.00;100514.97;4970824;28;20117;-76
2022/11/25 00:03:50;;;;;;;19.75;7.00;;;;;;;5.23;100.00;100520.28;4969470;28;20116;-77
2022/11/25 00:06:18;;;;;;;16.17;6.72;;;;;;;5.23;100.00;100528.91;4970907;28;20125;-76
2022/11/25 00:08:47;;;;;;;19.48;6.80;;;;;;;5.14;100.00;100529.66;4971363;28;20608;-77
2022/11/25 00:11:14;;;;;;;19.00;7.32;;;;;;;5.15;100.00;100535.69;4973338;28;20133;-75
2022/11/25 00:13:43;;;;;;;23.35;7.78;;;;;;;5.08;100.00;100534.53;4973745;28;20097;-76
2022/11/25 00:16:12;;;;;;;13.60;7.15;;;;;;;5.06;100.00;100518.25;4973165;28;20042;-76
2022/11/25 00:18:39;;;;;;;24.33;7.55;;;;;;;4.99;100.00;100513.56;4972043;28;20061;-76
2022/11/25 00:21:08;;;;;;;20.08;7.25;;;;;;;4.91;100.00;100502.97;4969916;28;20216;-78
2022/11/25 00:23:35;;;;;;;30.20;7.40;;;;;;;4.96;100.00;100503.44;4969283;28;20050;-78
2022/11/25 00:26:07;;;;;;;28.70;7.80;;;;;;;4.94;100.00;100499.31;4971331;28;20150;-77
2022/11/25 00:28:33;;;;;;;20.35;6.20;;;;;;;4.99;100.00;100497.16;4973713;28;20082;-77
2022/11/25 00:31:04;;;;;;;18.98;7.55;;;;;;;5.02;100.00;100506.47;4967914;28;20129;-75
2022/11/25 00:33:31;;;;;;;27.50;7.65;;;;;;;5.07;100.00;100496.56;4972657;28;20137;-77
2022/11/25 00:36:00;;;;;;;20.02;7.30;;;;;;;5.08;100.00;100491.25;4972538;28;20142;-77
2022/11/25 00:38:29;;;;;;;19.13;7.70;;;;;;;5.16;100.00;100488.88;4971310;28;20085;-76
2022/11/25 00:44:34;;;;;;;19.27;6.50;;;;;;;5.28;100.00;100498.22;4972420;28;20133;-76
2022/11/25 00:46:27;;;;;;;20.13;7.05;;;;;;;5.36;100.00;100489.81;4971372;28;20061;-77
2022/11/25 00:48:53;;;;;;;25.52;8.02;;;;;;;5.45;100.00;100483.88;4971306;28;20520;-77
2022/11/25 00:51:20;;;;;;;23.42;7.05;;;;;;;5.55;100.00;100489.13;4971734;28;20262;-75
2022/11/25 00:53:48;;;;;;;21.80;7.30;;;;;;;5.58;100.00;100492.28;4971132;28;20070;-77
2022/11/25 00:56:15;;;;;;;19.98;6.75;;;;;;;5.50;100.00;100494.69;4971695;28;20138;-77
2022/11/25 00:58:43;;;;;;;20.63;7.18;;;;;;;5.54;100.00;100487.47;4970845;28;20058;-76
2022/11/25 01:01:10;;;;;;;21.48;7.38;;;;;;;5.53;100.00;100484.06;4972064;28;20395;-76
2022/11/25 01:03:37;;;;;;;20.75;6.90;;;;;;;5.54;100.00;100488.31;4971907;28;20209;-76
2022/11/25 01:06:06;;;;;;;21.55;6.63;;;;;;;5.62;100.00;100490.28;4972456;28;20489;-76
2022/11/25 01:08:36;;;;;;;18.63;6.80;;;;;;;5.70;100.00;100479.22;4971398;28;20454;-76
2022/11/25 01:11:08;;;;;;;18.25;6.60;;;;;;;5.79;100.00;100489.66;4972160;28;20047;-76
2022/11/25 01:13:34;;;;;;;19.05;6.78;;;;;;;5.87;100.00;100473.44;4971702;28;20097;-76
2022/11/25 01:16:01;;;;;;;16.35;6.82;;;;;;;5.95;100.00;100478.84;4971780;28;20058;-76
2022/11/25 01:18:28;;;;;;;17.95;6.03;;;;;;;5.99;100.00;100467.25;4971850;28;20077;-76
2022/11/25 01:20:55;;;;;;;19.40;6.30;;;;;;;6.03;100.00;100473.81;4972062;28;20042;-77
2022/11/25 01:23:22;;;;;;;21.98;7.40;;;;;;;6.10;100.00;100472.34;4971679;28;20137;-75
2022/11/25 01:25:48;;;;;;;16.85;5.80;;;;;;;6.12;100.00;100469.63;4971151;28;20089;-78
2022/11/25 01:28:16;;;;;;;21.67;6.07;;;;;;;6.22;100.00;100479.06;4971505;28;20484;-76
2022/11/25 01:30:43;;;;;;;18.63;7.57;;;;;;;6.25;100.00;100471.03;4971328;28;20534;-76
2022/11/25 01:33:09;;;;;;;15.85;5.93;;;;;;;6.20;100.00;100469.75;4971881;28;20085;-76
2022/11/25 01:35:37;;;;;;;24.52;6.55;;;;;;;6.24;100.00;100466.78;4971538;28;20050;-76
2022/11/25 01:38:03;;;;;;;17.75;6.65;;;;;;;6.23;100.00;100470.31;4970939;28;20043;-76
2022/11/25 01:40:30;;;;;;;20.92;6.90;;;;;;;6.22;100.00;100467.84;4971758;28;20050;-74
2022/11/25 01:42:57;;;;;;;22.58;6.95;;;;;;;6.26;100.00;100464.03;4972017;28;20138;-77
2022/11/25 01:45:37;;;;;;;19.95;5.97;;;;;;;6.28;100.00;100468.16;4971478;28;20108;-77
2022/11/25 01:48:11;;;;;;;16.90;5.82;;;;;;;6.29;100.00;100469.81;4971659;28;20150;-76
2022/11/25 01:50:38;;;;;;;15.75;5.80;;;;;;;6.36;100.00;100466.69;4971944;28;20129;-77
2022/11/25 01:53:10;;;;;;;20.38;6.05;;;;;;;6.35;100.00;100473.66;4971508;28;20489;-77
2022/11/25 01:55:40;;;;;;;18.80;6.70;;;;;;;6.39;100.00;100476.81;4972147;28;20161;-76
2022/11/25 01:58:11;;;;;;;21.48;7.60;;;;;;;6.41;100.00;100478.31;4971784;28;20141;-78
2022/11/25 02:00:39;;;;;;;15.82;6.13;;;;;;;6.45;100.00;100468.47;4971903;28;20321;-77
2022/11/25 02:03:08;;;;;;;24.42;6.68;;;;;;;6.43;100.00;100455.63;4972238;28;20122;-78
2022/11/25 02:05:42;;;;;;;16.42;6.05;;;;;;;6.53;100.00;100466.03;4971624;28;20498;-77
2022/11/25 02:08:10;;;;;;;21.25;6.50;;;;;;;6.57;100.00;100464.81;4970833;28;20126;-77
2022/11/25 02:10:37;;;;;;;17.58;6.30;;;;;;;6.58;100.00;100456.06;4971611;28;20074;-74
2022/11/25 02:13:04;;;;;;;15.40;5.63;;;;;;;6.58;100.00;100462.09;4971530;28;20061;-76
2022/11/25 02:15:33;;;;;;;19.58;6.25;;;;;;;6.59;100.00;100455.13;4970815;28;20149;-75
2022/11/25 02:18:02;;;;;;;20.67;5.57;;;;;;;6.68;100.00;100451.69;4971020;28;20523;-77
2022/11/25 02:20:28;;;;;;;21.75;7.43;;;;;;;6.68;100.00;100451.69;4971319;28;20440;-77
2022/11/25 02:23:03;;;;;;;20.75;6.13;;;;;;;6.70;100.00;100447.16;4971870;28;20130;-77
2022/11/25 02:25:33;;;;;;;18.58;6.05;;;;;;;6.75;100.00;100455.38;4955141;28;20125;-77
2022/11/25 02:28:03;;;;;;;18.58;6.55;;;;;;;6.73;100.00;100451.28;4971015;28;20402;-77
2022/11/25 02:30:30;;;;;;;18.48;6.60;;;;;;;6.72;100.00;100450.44;4970900;28;20085;-77
2022/11/25 02:32:59;;;;;;;21.42;7.20;;;;;;;6.70;100.00;100454.97;4971492;28;20058;-76
2022/11/25 02:35:28;;;;;;;22.13;7.03;;;;;;;6.74;100.00;100455.53;4971548;28;20094;-77
2022/11/25 02:37:58;;;;;;;17.27;6.40;;;;;;;6.74;100.00;100458.13;4971251;28;20141;-77
2022/11/25 02:40:27;;;;;;;15.65;7.40;;;;;;;6.73;100.00;100454.69;4971218;28;20142;-77
2022/11/25 02:42:58;;;;;;;19.90;7.03;;;;;;;6.70;100.00;100454.97;4971355;28;20134;-75
2022/11/25 02:45:33;;;;;;;17.10;6.90;;;;;;;6.72;100.00;100442.66;4971065;28;20083;-75
2022/11/25 02:48:00;;;;;;;17.83;6.05;;;;;;;6.69;100.00;100448.13;4972389;28;20117;-77
2022/11/25 02:50:27;;;;;;;18.73;6.95;;;;;;;6.70;100.00;100449.75;4974264;28;20189;-76
2022/11/25 02:52:54;;;;;;;25.17;7.45;;;;;;;6.72;100.00;100440.06;4974747;28;20140;-78
2022/11/25 02:55:20;;;;;;;16.20;7.35;;;;;;;6.74;100.00;100453.75;4974379;28;20433;-76
2022/11/25 02:57:47;;;;;;;16.95;6.07;;;;;;;6.77;100.00;100453.47;4974641;28;20069;-78
2022/11/25 03:00:17;;;;;;;18.27;6.53;;;;;;;6.76;100.00;100441.44;4973530;28;20071;-78
2022/11/25 03:02:43;;;;;;;16.52;6.97;;;;;;;6.81;100.00;100446.22;4975184;28;20043;-78
2022/11/25 03:05:10;;;;;;;21.25;6.95;;;;;;;6.85;100.00;100450.19;4974151;28;20110;-77
2022/11/25 03:07:36;;;;;;;16.52;6.80;;;;;;;6.85;100.00;100456.22;4974878;28;20090;-75
2022/11/25 03:10:04;;;;;;;18.95;7.22;;;;;;;6.81;100.00;100461.81;4974096;28;20129;-77
2022/11/25 03:12:31;;;;;;;16.45;6.82;;;;;;;6.81;100.00;100465.25;4976778;28;20134;-77
2022/11/25 03:14:58;;;;;;;23.30;6.47;;;;;;;6.86;100.00;100465.66;4975229;28;20047;-77
2022/11/25 03:17:26;;;;;;;22.63;6.80;;;;;;;6.85;100.00;100465.81;4974259;28;20078;-77
2022/11/25 03:19:52;;;;;;;17.15;6.97;;;;;;;6.83;100.00;100458.13;4975028;28;20090;-78
2022/11/25 03:22:19;;;;;;;19.75;7.07;;;;;;;6.84;100.00;100459.78;4974666;28;20061;-78
2022/11/25 03:24:46;;;;;;;22.75;6.82;;;;;;;6.84;100.00;100470.19;4973692;28;20528;-76
2022/11/25 03:27:12;;;;;;;18.10;6.10;;;;;;;6.87;100.00;100469.91;4974055;28;20134;-77
2022/11/25 03:29:39;;;;;;;20.13;6.78;;;;;;;6.86;100.00;100473.47;4973863;28;20141;-75
2022/11/25 03:32:06;;;;;;;16.40;6.10;;;;;;;6.88;100.00;100475.94;4973610;28;20078;-77
2022/11/25 03:34:34;;;;;;;18.27;5.65;;;;;;;6.91;100.00;100475.66;4973433;28;20149;-78
2022/11/25 03:37:00;;;;;;;24.15;6.82;;;;;;;6.93;100.00;100479.78;4973933;28;20050;-78
2022/11/25 03:39:27;;;;;;;15.50;6.43;;;;;;;6.97;100.00;100478.53;4973023;28;20102;-79
2022/11/25 03:41:54;;;;;;;17.80;6.47;;;;;;;6.99;100.00;100476.63;4973422;28;20143;-78
2022/11/25 03:44:20;;;;;;;15.13;6.97;;;;;;;7.02;100.00;100483.34;4974142;28;20133;-78
2022/11/25 03:46:47;;;;;;;15.70;6.30;;;;;;;7.01;100.00;100486.91;4973566;28;20137;-78
2022/11/25 03:49:14;;;;;;;19.38;6.03;;;;;;;7.03;100.00;100495.38;4973604;28;20051;-77
2022/11/25 03:51:42;;;;;;;19.98;6.85;;;;;;;7.04;100.00;100491.00;4973845;28;20138;-79
2022/11/25 03:54:08;;;;;;;19.33;6.88;;;;;;;7.04;100.00;100491.84;4973801;28;20047;-76
2022/11/25 03:56:35;;;;;;;17.42;6.10;;;;;;;7.09;100.00;100494.03;4973523;28;20133;-79
2022/11/25 03:59:01;;;;;;;15.98;6.13;;;;;;;7.07;100.00;100490.75;4973506;28;20050;-78
2022/11/25 04:01:28;;;;;;;19.13;6.63;;;;;;;7.14;100.00;100497.00;4973435;28;20139;-78
2022/11/25 04:03:55;;;;;;;22.02;6.90;;;;;;;7.16;100.00;100497.69;4974083;28;20153;-77
2022/11/25 04:06:22;;;;;;;14.55;6.15;;;;;;;7.12;100.00;100489.34;4973640;28;20081;-77
2022/11/25 04:08:51;;;;;;;22.58;6.85;;;;;;;7.15;100.00;100498.66;4972889;28;20146;-77
2022/11/25 04:11:19;;;;;;;20.30;7.13;;;;;;;7.19;100.00;100502.63;4973405;28;20134;-79
2022/11/25 04:14:01;;;;;;;18.08;6.80;;;;;;;7.05;100.00;100477.88;4985828;23;20133;-76
2022/11/25 04:16:27;;;;;;;18.23;6.82;;;;;;;7.09;100.00;100483.63;4992095;28;20086;-79
2022/11/25 04:18:54;;;;;;;17.83;6.65;;;;;;;7.25;100.00;100508.09;4992473;28;20505;-77
2022/11/25 04:21:20;;;;;;;20.00;6.97;;;;;;;7.23;100.00;100507.44;4992664;28;20179;-76
2022/11/25 04:23:47;;;;;;;20.55;6.53;;;;;;;7.30;100.00;100512.91;4998123;28;20125;-77
2022/11/25 04:28:44;;;;;;;25.55;7.78;;;;;;;7.32;100.00;100511.81;5017700;28;20050;-79
2022/11/25 04:31:11;;;;;;;23.23;7.03;;;;;;;7.32;100.00;100519.63;5017699;28;20084;-80
2022/11/25 04:33:37;;;;;;;15.05;6.78;;;;;;;7.27;100.00;100516.59;5017475;28;20088;-80
2022/11/25 04:36:04;;;;;;;17.52;6.75;;;;;;;7.25;100.00;100525.50;5018060;28;20100;-80
2022/11/25 04:38:31;;;;;;;16.20;7.18;;;;;;;7.22;100.00;100528.38;5002034;28;20081;-83
2022/11/25 04:40:57;;;;;;;16.33;7.10;;;;;;;7.25;100.00;100533.31;4999078;28;20483;-82
2022/11/25 04:43:24;;;;;;;18.70;6.70;;;;;;;7.21;100.00;100526.75;5001119;28;20074;-83
2022/11/25 04:45:53;;;;;;;19.92;6.97;;;;;;;7.18;100.00;100532.22;5006712;28;20053;-81
2022/11/25 04:48:19;;;;;;;21.10;6.85;;;;;;;7.12;100.00;100536.19;5017730;28;20108;-80
2022/11/25 04:50:46;;;;;;;20.80;6.95;;;;;;;7.09;100.00;100530.44;5018685;28;20089;-82
2022/11/25 04:53:12;;;;;;;21.10;7.05;;;;;;;7.13;100.00;100537.81;5018236;28;20129;-79
2022/11/25 04:55:39;;;;;;;16.55;7.35;;;;;;;7.14;100.00;100538.66;5017637;28;20066;-80
2022/11/25 04:58:06;;;;;;;17.55;7.30;;;;;;;7.16;100.00;100541.94;5017494;28;20351;-82
2022/11/25 05:00:31;;;;;;;29.52;7.97;;;;;;;7.16;100.00;100539.34;5013621;28;20046;-81
2022/11/25 05:03:02;;;;;;;20.52;7.25;;;;;;;7.19;100.00;100549.47;4997870;28;20050;-80
2022/11/25 05:05:29;;;;;;;20.70;7.97;;;;;;;7.21;100.00;100552.75;4997530;28;20078;-80
2022/11/25 05:07:56;;;;;;;21.05;7.78;;;;;;;7.21;100.00;100556.19;4996452;28;20054;-81
2022/11/25 05:10:23;;;;;;;19.80;7.57;;;;;;;7.25;100.00;100565.38;4996899;28;20129;-80
2022/11/25 05:12:50;;;;;;;21.60;7.72;;;;;;;7.23;100.00;100561.25;4997764;28;20069;-82
2022/11/25 05:15:16;;;;;;;20.83;7.55;;;;;;;7.25;100.00;100567.16;4998687;28;20373;-80
2022/11/25 05:17:43;;;;;;;19.10;8.13;;;;;;;7.22;100.00;100567.41;5017905;28;20193;-82
2022/11/25 05:20:12;;;;;;;17.15;7.68;;;;;;;7.21;100.00;100568.38;5017583;28;20092;-83
2022/11/25 05:22:38;;;;;;;20.45;7.47;;;;;;;7.18;100.00;100574.66;5019101;28;20408;-83
2022/11/25 05:25:06;;;;;;;22.00;7.80;;;;;;;7.16;100.00;100571.38;5018492;28;20080;-84
2022/11/25 05:27:32;;;;;;;24.50;7.63;;;;;;;7.17;100.00;100575.63;4999220;28;20066;-84
2022/11/25 05:29:59;;;;;;;26.83;8.20;;;;;;;7.18;100.00;100569.47;4998570;28;20125;-81
2022/11/25 05:32:25;;;;;;;22.75;7.50;;;;;;;7.18;100.00;100569.47;4997793;28;20088;-81
2022/11/25 05:34:52;;;;;;;25.20;7.60;;;;;;;7.17;100.00;100570.44;4998026;28;20053;-81
2022/11/25 05:37:20;;;;;;;26.60;8.40;;;;;;;7.11;100.00;100568.38;4998970;28;20137;-80
2022/11/25 05:39:46;;;;;;;25.38;8.90;;;;;;;7.11;100.00;100560.56;5000314;28;20141;-82
2022/11/25 05:42:13;;;;;;;17.42;8.10;;;;;;;7.16;100.00;100573.16;5018510;28;20085;-82
2022/11/25 05:44:39;;;;;;;18.00;8.23;;;;;;;7.14;100.00;100586.31;5017945;28;20077;-80
2022/11/25 05:47:06;;;;;;;19.50;8.20;;;;;;;7.14;100.00;100580.28;5002117;28;20133;-81
2022/11/25 05:49:33;;;;;;;21.02;8.77;;;;;;;7.15;100.00;100582.75;4997970;28;20533;-80
2022/11/25 05:52:01;;;;;;;19.58;9.82;;;;;;;7.13;100.00;100589.88;5018695;28;20085;-82
2022/11/25 05:54:28;;;;;;;22.20;7.95;;;;;;;7.13;100.00;100589.03;5018558;28;20050;-82
2022/11/25 05:56:55;;;;;;;19.70;7.93;;;;;;;7.14;100.00;100603.69;5018802;28;20101;-81
2022/11/25 05:59:27;;;;;;;27.80;8.43;;;;;;;7.13;100.00;100604.66;5006928;28;20141;-82
2022/11/25 06:01:54;;;;;;;19.65;8.40;;;;;;;7.17;100.00;100611.25;4999297;28;20138;-82
2022/11/25 06:04:20;;;;;;;26.25;8.63;;;;;;;7.15;100.00;100607.94;4999880;28;20130;-83
2022/11/25 06:06:47;;;;;;;23.23;7.75;;;;;;;7.14;100.00;100608.91;4999566;28;20054;-81
2022/11/25 06:09:14;;;;;;;21.60;7.90;;;;;;;7.15;100.00;100605.34;4998738;28;20050;-81
2022/11/25 06:11:42;;;;;;;20.13;8.32;;;;;;;7.18;100.00;100618.91;5002261;28;20113;-82
2022/11/25 06:14:08;;;;;;;17.15;7.07;;;;;;;7.12;100.00;100613.41;4999286;28;20093;-82
2022/11/25 06:16:35;;;;;;;25.25;8.23;;;;;;;7.18;100.00;100628.50;5001426;28;20054;-79
2022/11/25 06:19:04;;;;;;;30.05;7.57;;;;;;;7.17;100.00;100626.84;5006866;28;20081;-83
2022/11/25 06:21:31;;;;;;;20.17;7.75;;;;;;;7.20;100.00;100627.41;5013861;28;20054;-81
2022/11/25 06:23:57;;;;;;;16.75;6.88;;;;;;;7.23;100.00;100634.94;5012408;28;20074;-81
2022/11/25 06:26:24;;;;;;;20.83;7.88;;;;;;;7.19;100.00;100635.34;5012581;28;20070;-80
2022/11/25 06:28:55;;;;;;;28.42;8.07;;;;;;;7.20;100.00;100637.00;5011159;28;20085;-79
2022/11/25 06:31:24;;;;;;;19.85;7.43;;;;;;;7.23;100.00;100641.94;5018672;28;20538;-82
2022/11/25 06:33:52;;;;;;;18.67;7.30;;;;;;;7.19;100.00;100650.97;5024034;28;20088;-80
2022/11/25 06:36:20;;;;;;;21.15;7.63;;;;;;;7.20;100.00;100650.00;5023139;28;20054;-80
2022/11/25 06:38:48;;;;;;;24.13;8.93;;;;;;;7.18;100.00;100646.72;5020492;28;20520;-80
2022/11/25 06:41:15;;;;;;;18.02;6.88;;;;;;;7.24;100.00;100651.38;5006261;28;20149;-79
2022/11/25 06:43:42;;;;;;;52.88;28.70;;;;;;;7.28;100.00;100652.78;5000789;28;20423;-81
2022/11/25 06:46:13;;;;;;;37.20;18.08;;;;;;;7.27;100.00;100653.72;5008327;28;20092;-80
2022/11/25 06:48:40;;;;;;;36.63;20.50;;;;;;;7.26;100.00;100659.88;5018252;28;20464;-80
2022/11/25 06:51:08;;;;;;;25.30;11.82;;;;;;;7.26;100.00;100662.50;5019345;28;20116;-80
2022/11/25 06:53:35;;;;;;;28.10;11.10;;;;;;;7.23;100.00;100655.78;5011036;28;20051;-82
2022/11/25 06:56:08;;;;;;;33.67;14.68;;;;;;;7.19;100.00;100649.19;5001784;28;20081;-80
2022/11/25 06:58:35;;;;;;;;;;;;;;;7.16;100.00;100656.44;5000705;28;20081;-80
2022/11/25 07:01:03;;;;;;;27.73;11.27;;;;;;;7.07;100.00;100652.88;5007058;28;20004;-81
2022/11/25 07:03:31;;;;;;;25.83;11.35;;;;;;;6.91;100.00;100652.53;5019943;28;20054;-80
2022/11/25 07:05:58;;;;;;;20.67;9.13;;;;;;;6.88;100.00;100656.22;5021094;28;20436;-80
2022/11/25 07:08:25;;;;;;;19.13;9.10;;;;;;;6.81;100.00;100662.91;5019707;28;20476;-77
2022/11/25 07:10:52;;;;;;;18.98;12.40;;;;;;;6.79;100.00;100664.00;5014804;28;20054;-81
2022/11/25 07:13:19;;;;;;;25.80;9.85;;;;;;;6.66;100.00;100665.03;5001736;28;20122;-80
2022/11/25 07:15:45;;;;;;;16.98;8.00;;;;;;;6.59;100.00;100673.50;5008194;28;20137;-80
2022/11/25 07:18:12;;;;;;;23.52;7.57;;;;;;;6.48;100.00;100671.78;5020836;28;20081;-81
2022/11/25 07:20:40;;;;;;;19.17;7.40;;;;;;;6.42;100.00;100679.28;5019586;28;20049;-81
2022/11/25 07:23:07;;;;;;;21.73;8.65;;;;;;;6.36;100.00;100677.19;5001390;28;20078;-81
2022/11/25 07:25:33;;;;;;;23.23;8.18;;;;;;;6.20;100.00;100683.66;5000288;28;20042;-81
2022/11/25 07:28:00;;;;;;;19.50;8.32;;;;;;;6.12;100.00;100686.06;5001003;28;20073;-81
2022/11/25 07:30:26;;;;;;;21.13;7.85;;;;;;;6.10;100.00;100695.78;5003452;28;20133;-82
2022/11/25 07:32:53;;;;;;;18.52;7.88;;;;;;;6.13;100.00;100698.13;5020099;28;20109;-82
2022/11/25 07:35:20;;;;;;;25.20;7.75;;;;;;;6.12;100.00;100711.22;5016997;28;20607;-82
2022/11/25 07:37:48;;;;;;;19.65;8.23;;;;;;;6.06;100.00;100717.75;5001205;28;20120;-83
2022/11/25 07:40:15;;;;;;;28.67;9.13;;;;;;;6.00;100.00;100720.84;5000552;28;20073;-81
2022/11/25 07:42:41;;;;;;;21.92;9.38;;;;;;;6.01;100.00;100725.09;5000603;28;20120;-82
2022/11/25 07:45:09;;;;;;;19.90;8.98;;;;;;;6.24;100.00;100726.63;5001132;28;20054;-80
2022/11/25 07:47:35;;;;;;;19.95;9.07;;;;;;;6.55;100.00;100734.50;5001744;28;20065;-79
2022/11/25 07:50:02;;;;;;;20.20;9.10;;;;;;;6.73;100.00;100739.94;5006770;28;20085;-79
2022/11/25 07:52:29;;;;;;;27.98;9.48;;;;;;;6.74;100.00;100747.59;4999326;28;20050;-80
2022/11/25 07:54:57;;;;;;;23.33;9.60;;;;;;;6.83;100.00;100744.22;4997167;28;20109;-78
2022/11/25 07:57:23;;;;;;;20.13;8.93;;;;;;;6.87;100.00;100745.63;5002807;28;20077;-80
2022/11/25 07:59:50;;;;;;;18.42;8.40;;;;;;;7.01;100.00;100744.47;5017532;28;20136;-80
2022/11/25 08:02:16;;;;;;;25.95;8.20;;;;;;;7.04;100.00;100738.19;5016135;28;20113;-81
2022/11/25 08:04:43;;;;;;;20.27;8.40;;;;;;;7.15;100.00;100744.09;5002071;28;20043;-78
2022/11/25 08:07:10;;;;;;;22.35;9.30;;;;;;;7.41;100.00;100751.44;4993343;28;20065;-80
2022/11/25 08:09:37;;;;;;;18.20;8.82;;;;;;;7.44;100.00;100741.59;4998628;28;20050;-78
2022/11/25 08:12:05;;;;;;;21.48;7.93;;;;;;;7.44;100.00;100739.00;4994471;28;20132;-81
2022/11/25 08:14:32;;;;;;;15.10;6.55;;;;;;;7.45;100.00;100745.84;5008169;28;20613;-82
2022/11/25 08:16:58;;;;;;;16.40;7.20;;;;;;;7.37;100.00;100755.28;4997868;28;20149;-80
2022/11/25 08:19:25;;;;;;;15.98;7.38;;;;;;;7.30;100.00;100752.38;4994102;28;20089;-81
2022/11/25 08:21:51;;;;;;;20.42;6.90;;;;;;;7.29;100.00;100761.13;4998332;28;20110;-82
2022/11/25 08:24:20;;;;;;;16.70;6.55;;;;;;;7.34;100.00;100758.97;4997306;28;20117;-81
2022/11/25 08:26:47;;;;;;;17.98;6.90;;;;;;;7.33;100.00;100767.72;4996521;28;20078;-80
2022/11/25 08:29:17;;;;;;;15.43;6.53;;;;;;;7.34;100.00;100771.97;5001651;28;20077;-81
2022/11/25 08:31:43;;;;;;;18.55;6.38;;;;;;;7.37;100.00;100771.72;5001578;28;20085;-81
2022/11/25 08:34:16;;;;;;;17.45;6.53;;;;;;;7.48;100.00;100787.25;5000691;28;20078;-81
2022/11/25 08:36:42;;;;;;;13.70;6.00;;;;;;;7.46;100.00;100781.34;5000157;28;20129;-82
2022/11/25 08:39:09;;;;;;;18.27;7.13;;;;;;;7.50;100.00;100784.50;5000973;28;20489;-81
2022/11/25 08:41:37;;;;;;;14.70;5.90;;;;;;;7.50;100.00;100794.94;5001917;28;20074;-79
2022/11/25 08:44:06;;;;;;;15.05;7.38;;;;;;;7.61;100.00;100798.22;5001891;28;20069;-81
2022/11/25 08:46:38;;;;;;;14.93;6.28;;;;;;;7.56;100.00;100810.03;5014721;28;20428;-81
2022/11/25 08:49:07;;;;;;;16.77;5.78;;;;;;;7.59;100.00;100807.94;5023310;28;20460;-80
2022/11/25 08:51:36;;;;;;;10.90;5.70;;;;;;;7.66;100.00;100819.50;5023580;28;20057;-81
2022/11/25 08:54:03;;;;;;;11.80;6.13;;;;;;;7.75;100.00;100814.44;5023139;28;20081;-81
2022/11/25 08:56:30;;;;;;;13.05;6.20;;;;;;;7.75;100.00;100827.47;5003732;28;20058;-82
2022/11/25 08:58:58;;;;;;;16.65;6.35;;;;;;;7.74;100.00;100812.78;5001214;28;20081;-82
2022/11/25 09:01:25;;;;;;;12.98;6.65;;;;;;;7.76;100.00;100821.31;5011998;28;20481;-81
2022/11/25 09:03:57;;;;;;;10.70;6.15;;;;;;;7.78;100.00;100825.44;5022822;28;20084;-82
2022/11/25 09:06:25;;;;;;;15.73;5.97;;;;;;;7.88;100.00;100820.25;5022220;28;20512;-81
2022/11/25 09:08:55;;;;;;;13.43;5.88;;;;;;;7.92;100.00;100827.66;5021580;28;20049;-82
2022/11/25 09:11:21;;;;;;;12.43;5.38;;;;;;;8.01;100.00;100833.03;5019364;28;20173;-82
2022/11/25 09:13:48;;;;;;;15.27;5.78;;;;;;;8.02;100.00;100832.91;5020922;28;20096;-82
2022/11/25 09:16:15;;;;;;;11.07;5.15;;;;;;;8.11;100.00;100834.66;5010278;28;20564;-80
2022/11/25 09:18:41;;;;;;;11.38;5.75;;;;;;;8.14;100.00;100830.97;5001732;28;20054;-81
2022/11/25 09:21:11;;;;;;;16.13;5.35;;;;;;;8.21;100.00;100835.50;5008000;28;20077;-81
2022/11/25 09:23:38;;;;;;;12.07;5.15;;;;;;;8.32;100.00;100845.00;5008334;28;20074;-81
2022/11/25 09:26:06;;;;;;;14.82;4.82;;;;;;;8.31;100.00;100836.34;5012925;28;20077;-79
2022/11/25 09:28:35;;;;;;;12.63;4.70;;;;;;;8.33;100.00;100838.84;5024295;28;20050;-78
2022/11/25 09:31:07;;;;;;;9.63;4.97;;;;;;;8.35;100.00;100838.72;5017992;28;20046;-78
2022/11/25 09:33:34;;;;;;;9.73;4.25;;;;;;;8.47;100.00;100848.06;5009886;28;20081;-78
2022/11/25 09:36:01;;;;;;;11.75;5.00;;;;;;;8.57;100.00;100857.50;4993357;28;20082;-77
2022/11/25 09:38:29;;;;;;;15.27;9.73;;;;;;;8.57;100.00;100860.13;4984068;28;20074;-78
2022/11/25 09:41:01;;;;;;;12.23;5.15;;;;;;;8.66;100.00;100861.06;5020521;28;20078;-78
2022/11/25 09:46:44;;;;;;;12.43;5.45;;;;;;;8.74;100.00;100869.03;5019760;28;20519;-79
2022/11/25 09:49:24;;;;;;;13.48;5.40;;;;;;;8.81;100.00;100877.16;5015809;28;20133;-78
2022/11/25 09:52:01;;;;;;;10.77;4.78;;;;;;;8.86;100.00;100867.94;5002516;28;20054;-80
2022/11/25 09:54:34;;;;;;;11.07;4.90;;;;;;;8.92;100.00;100869.19;5002722;28;20050;-79
2022/11/25 09:57:06;;;;;;;12.57;4.60;;;;;;;8.95;100.00;100863.69;5003200;28;20078;-77
2022/11/25 09:59:41;;;;;;;13.45;4.85;;;;;;;9.03;100.00;100870.78;5008788;28;20078;-79
2022/11/25 10:02:17;;;;;;;11.90;4.63;;;;;;;9.08;100.00;100866.78;5006136;28;20082;-78
2022/11/25 10:04:49;;;;;;;14.18;5.53;;;;;;;9.08;100.00;100873.81;5007074;28;20046;-79
2022/11/25 10:07:21;;;;;;;15.27;4.60;;;;;;;9.13;100.00;100877.63;5006662;28;20081;-79
2022/11/25 10:09:49;;;;;;;11.65;4.60;;;;;;;9.21;100.00;100875.16;5007216;28;20053;-77
2022/11/25 10:12:24;;;;;;;11.35;4.88;;;;;;;9.31;100.00;100881.19;5008181;28;20113;-79
2022/11/25 10:14:58;;;;;;;10.88;4.28;;;;;;;9.42;100.00;100877.59;5007941;28;20053;-78
2022/11/25 10:17:33;;;;;;;12.43;4.43;;;;;;;9.50;100.00;100882.88;5008948;28;20063;-78
2022/11/25 10:20:05;;;;;;;13.50;4.13;;;;;;;9.55;100.00;100882.47;5008526;28;20086;-79
2022/11/25 10:22:34;;;;;;;14.35;4.55;;;;;;;9.62;100.00;100894.81;5009460;28;20081;-79
2022/11/25 10:25:12;;;;;;;21.77;4.78;;;;;;;9.78;100.00;100893.38;5009955;28;20050;-80
2022/11/25 10:27:44;;;;;;;11.75;4.63;;;;;;;9.87;100.00;100895.97;5029031;23;20046;-80
2022/11/25 10:30:18;;;;;;;23.67;5.88;;;;;;;9.97;100.00;100898.50;4999105;28;20093;-79
2022/11/25 10:32:50;;;;;;;18.08;6.25;;;;;;;10.21;99.91;100903.22;5001016;28;20476;-79
2022/11/25 10:35:25;;;;;;;12.82;4.28;;;;;;;10.37;99.00;100897.34;4999677;28;20531;-80
2022/11/25 10:37:54;;;;;;;12.43;4.20;;;;;;;10.48;98.03;100894.50;4999759;28;20093;-81
2022/11/25 10:40:22;;;;;;;14.88;4.05;;;;;;;10.57;96.62;100897.06;5000548;28;20376;-80
2022/11/25 10:42:49;;;;;;;17.73;4.65;;;;;;;10.61;95.59;100893.16;5000195;28;20054;-80
2022/11/25 10:45:16;;;;;;;15.55;3.97;;;;;;;10.70;95.28;100903.72;5000112;28;20078;-80
2022/11/25 10:48:06;;;;;;;17.10;4.85;;;;;;;10.75;95.00;100907.53;4998200;28;20081;-80
2022/11/25 10:50:41;;;;;;;13.77;4.55;;;;;;;10.76;94.86;100911.78;5000218;28;20187;-80
2022/11/25 10:53:13;;;;;;;14.88;4.72;;;;;;;10.57;94.51;100899.66;5000187;28;20140;-79
2022/11/25 10:55:57;;;;;;;26.90;5.78;;;;;;;10.62;94.43;100909.69;4999443;28;20084;-80
2022/11/25 10:58:28;;;;;;;18.85;4.63;;;;;;;10.53;94.01;100910.59;4999118;28;20134;-80
2022/11/25 11:01:06;;;;;;;19.38;4.50;;;;;;;10.51;93.83;100917.75;5000395;28;20109;-81
2022/11/25 11:03:34;;;;;;;20.38;4.45;;;;;;;10.50;95.28;100921.34;5000056;28;20096;-80
2022/11/25 11:06:01;;;;;;;19.40;5.03;;;;;;;10.51;94.13;100918.56;4999648;28;20046;-80
2022/11/25 11:08:36;;;;;;;21.73;5.03;;;;;;;10.49;95.13;100915.28;4998175;28;20054;-80
2022/11/25 11:11:16;;;;;;;17.00;4.57;;;;;;;10.51;95.28;100923.00;4999829;28;20074;-78
2022/11/25 11:13:43;;;;;;;19.25;4.85;;;;;;;10.55;95.33;100929.56;4997827;28;20154;-79
2022/11/25 11:16:27;;;;;;;23.02;4.90;;;;;;;10.62;94.85;100930.63;4997685;28;20042;-79
2022/11/25 11:18:55;;;;;;;16.90;4.55;;;;;;;10.68;94.68;100929.22;4996902;28;20082;-80
2022/11/25 11:21:25;;;;;;;19.23;4.80;;;;;;;10.71;94.38;100934.97;4996979;28;20046;-79
2022/11/25 11:23:54;;;;;;;14.70;4.80;;;;;;;10.89;94.55;100937.56;4997442;28;20110;-79
2022/11/25 11:26:28;;;;;;;18.58;5.03;;;;;;;10.94;93.98;100936.16;4997977;28;20088;-78
2022/11/25 11:29:03;;;;;;;21.77;5.10;;;;;;;10.88;93.21;100941.16;4997079;28;20061;-80
2022/11/25 11:31:34;;;;;;;17.33;4.55;;;;;;;10.75;93.54;100940.72;4996758;28;20142;-80